Time;durP1;ratioP1;P1;durP2;ratioP2;P2;SDS_P1;SDS_P2;PMS_P1;PMS_P2;Temp;Humidity;BMP_temperature;BMP_pressure;BME280_temperature;BME280_humidity;BME280_pressure;Samples;Min_cycle;Max_cycle;Signal;HPM_P1;HPM_P2
2021/12/20 00:01:28;;;;;;;4.29;3.89;;;;;;;4.87;80.87;100271.44;2288251;70;20310;-79
2021/12/20 00:04:31;;;;;;;4.64;4.21;;;;;;;4.90;80.66;100278.38;2288057;70;20306;-80
2021/12/20 00:07:34;;;;;;;4.54;4.01;;;;;;;4.91;80.51;100264.69;2286546;70;20776;-80
2021/12/20 00:10:36;;;;;;;4.50;3.91;;;;;;;4.93;80.68;100275.91;2286982;70;21338;-79
2021/12/20 00:13:39;;;;;;;4.96;4.35;;;;;;;4.91;80.77;100269.84;2285727;70;20323;-80
2021/12/20 00:16:42;;;;;;;6.03;4.31;;;;;;;4.93;80.78;100273.31;2286868;67;29633;-80
2021/12/20 00:19:44;;;;;;;4.75;4.25;;;;;;;4.91;80.85;100270.69;2287087;70;20287;-79
2021/12/20 00:22:47;;;;;;;4.53;4.13;;;;;;;4.91;80.94;100273.28;2288689;70;20328;-79
2021/12/20 00:25:50;;;;;;;5.49;4.71;;;;;;;4.93;81.13;100270.75;2288874;70;20282;-80
2021/12/20 00:28:53;;;;;;;5.00;4.00;;;;;;;4.91;81.33;100254.38;2287905;70;20384;-80
2021/12/20 00:31:55;;;;;;;4.69;4.20;;;;;;;4.92;81.37;100254.44;2288224;67;25569;-79
2021/12/20 00:34:58;;;;;;;5.47;4.29;;;;;;;4.93;81.08;100252.75;2281713;70;20388;-79
2021/12/20 00:41:23;;;;;;;5.21;4.51;;;;;;;4.89;80.59;100233.75;2288163;70;20373;-79
2021/12/20 00:44:25;;;;;;;4.88;4.26;;;;;;;4.91;80.42;100238.94;2286581;70;20357;-79
2021/12/20 00:47:28;;;;;;;4.89;4.36;;;;;;;4.91;80.52;100244.09;2285694;67;24384;-79
2021/12/20 00:50:31;;;;;;;4.68;4.20;;;;;;;4.93;80.40;100247.59;2286635;70;20396;-79
2021/12/20 00:53:34;;;;;;;5.22;4.55;;;;;;;4.92;80.53;100238.13;2287804;70;20299;-79
2021/12/20 00:56:37;;;;;;;5.46;4.59;;;;;;;4.94;80.35;100244.19;2288473;70;20313;-80
2021/12/20 00:59:39;;;;;;;5.41;4.50;;;;;;;4.96;80.24;100239.97;2286339;70;20627;-79
2021/12/20 01:02:43;;;;;;;5.03;4.53;;;;;;;4.97;80.13;100241.72;2286029;68;38429;-79
2021/12/20 01:05:48;;;;;;;5.31;4.70;;;;;;;4.97;79.82;100240.00;2287137;70;20310;-80
2021/12/20 01:08:51;;;;;;;5.63;5.03;;;;;;;4.97;80.00;100252.88;2287078;70;20376;-79
2021/12/20 01:12:01;;;;;;;5.09;4.16;;;;;;;4.98;80.08;100246.91;2286523;70;20851;-80
2021/12/20 01:15:04;;;;;;;4.41;3.95;;;;;;;4.99;80.05;100240.06;2285836;70;20331;-79
2021/12/20 01:18:07;;;;;;;5.69;4.61;;;;;;;4.98;80.32;100249.47;2286510;67;26579;-79
2021/12/20 01:21:10;;;;;;;4.44;3.97;;;;;;;4.96;80.68;100251.13;2287294;70;20330;-79
2021/12/20 01:24:12;;;;;;;5.88;4.30;;;;;;;4.95;80.45;100244.22;2285657;70;20322;-79
2021/12/20 01:27:15;;;;;;;4.34;3.94;;;;;;;4.95;80.24;100241.66;2286677;70;20360;-79
2021/12/20 01:30:21;;;;;;;3.70;3.40;;;;;;;4.96;80.09;100247.69;2285835;70;20350;-80
2021/12/20 01:33:23;;;;;;;5.04;4.54;;;;;;;4.95;79.64;100238.22;2287864;70;20338;-79
2021/12/20 01:36:26;;;;;;;4.79;4.01;;;;;;;4.98;79.51;100246.03;2288060;70;20291;-79
2021/12/20 01:39:29;;;;;;;5.76;4.45;;;;;;;4.97;79.87;100240.00;2288130;70;20307;-79
2021/12/20 01:42:34;;;;;;;4.82;3.61;;;;;;;4.96;79.64;100230.53;2283872;70;20357;-80
2021/12/20 01:45:37;;;;;;;4.90;4.11;;;;;;;5.00;79.79;100234.06;2287343;67;29221;-79
2021/12/20 01:48:42;;;;;;;4.05;3.65;;;;;;;5.00;79.91;100232.38;2288549;70;20314;-79
2021/12/20 01:54:49;;;;;;;4.44;3.96;;;;;;;4.97;80.31;100226.25;2286431;70;20291;-79
2021/12/20 01:57:52;;;;;;;4.19;3.79;;;;;;;4.96;80.66;100229.66;2286942;70;20358;-79
2021/12/20 02:04:10;;;;;;;4.19;3.81;;;;;;;4.95;80.50;100221.06;2288493;70;20337;-79
2021/12/20 02:07:31;;;;;;;5.79;4.39;;;;;;;4.94;80.47;100214.19;2287034;70;20368;-79
2021/12/20 02:10:34;;;;;;;5.66;3.86;;;;;;;4.92;80.32;100212.41;2288466;70;20325;-79
2021/12/20 02:13:40;;;;;;;3.83;3.46;;;;;;;4.89;80.72;100213.19;2287799;70;20318;-79
2021/12/20 02:16:44;;;;;;;5.13;4.16;;;;;;;4.85;81.23;100216.47;2287419;67;30913;-79
2021/12/20 02:19:46;;;;;;;4.18;3.54;;;;;;;4.85;81.46;100219.06;2285514;70;20353;-79
2021/12/20 02:22:49;;;;;;;4.54;4.14;;;;;;;4.83;81.47;100210.38;2282477;70;20780;-79
2021/12/20 02:25:52;;;;;;;5.29;4.21;;;;;;;4.83;81.55;100212.97;2289428;70;20821;-79
2021/12/20 02:28:58;;;;;;;6.14;3.84;;;;;;;4.82;81.71;100211.22;2290269;70;20376;-79
2021/12/20 02:38:45;;;;;;;4.40;3.95;;;;;;;4.78;82.60;100211.94;2288242;70;20330;-79
2021/12/20 02:41:48;;;;;;;4.82;3.88;;;;;;;4.77;82.87;100208.50;2286386;70;20306;-79
2021/12/20 02:45:05;;;;;;;4.24;3.80;;;;;;;4.77;83.16;100205.06;2287438;70;20335;-79
2021/12/20 02:48:08;;;;;;;3.90;3.15;;;;;;;4.73;83.26;100192.94;2286879;70;20368;-79
2021/12/20 02:51:10;;;;;;;5.84;4.25;;;;;;;4.69;83.68;100198.81;2286162;70;20349;-79
2021/12/20 02:54:13;;;;;;;4.71;3.79;;;;;;;4.68;83.85;100191.91;2287317;70;20337;-79
2021/12/20 02:57:16;;;;;;;3.92;3.01;;;;;;;4.64;84.26;100193.50;2289069;70;20306;-79
2021/12/20 03:00:19;;;;;;;6.34;4.15;;;;;;;4.62;84.80;100191.69;2287262;67;27546;-79
2021/12/20 03:03:23;;;;;;;5.25;3.24;;;;;;;4.62;85.09;100195.16;2287234;70;20319;-80
2021/12/20 03:06:36;;;;;;;4.28;3.61;;;;;;;4.62;85.45;100192.56;2287978;70;20322;-79
2021/12/20 03:09:44;;;;;;;3.75;3.34;;;;;;;4.62;85.46;100186.56;2288398;70;20323;-79
2021/12/20 03:12:49;;;;;;;5.40;4.05;;;;;;;4.59;85.24;100183.91;2283839;70;20311;-79
2021/12/20 03:15:52;;;;;;;6.14;4.51;;;;;;;4.55;85.37;100175.22;2286709;67;20310;-80
2021/12/20 03:18:54;;;;;;;5.53;4.28;;;;;;;4.57;85.47;100180.41;2287230;70;20320;-80
2021/12/20 03:21:59;;;;;;;6.11;4.44;;;;;;;4.54;85.59;100181.19;2289116;70;20330;-79
2021/12/20 03:25:02;;;;;;;6.00;3.88;;;;;;;4.54;85.93;100176.03;2287767;70;20419;-79
2021/12/20 03:28:05;;;;;;;4.85;4.09;;;;;;;4.54;86.29;100178.59;2286828;70;20356;-80
2021/12/20 03:31:08;;;;;;;4.90;3.86;;;;;;;4.55;86.43;100172.63;2287172;67;29597;-79
2021/12/20 03:34:10;;;;;;;6.66;4.46;;;;;;;4.53;86.43;100170.03;2289425;70;20348;-79
2021/12/20 03:37:13;;;;;;;5.09;3.84;;;;;;;4.52;86.51;100169.97;2289585;70;20380;-79
2021/12/20 03:40:16;;;;;;;6.28;4.68;;;;;;;4.50;86.67;100164.78;2288007;70;20349;-79
2021/12/20 03:43:19;;;;;;;5.32;4.50;;;;;;;4.49;86.55;100173.31;2290182;70;20303;-80
2021/12/20 03:46:21;;;;;;;5.74;4.78;;;;;;;4.52;86.50;100162.25;2287054;67;24774;-80
2021/12/20 03:49:25;;;;;;;5.35;4.59;;;;;;;4.53;86.56;100169.16;2289490;70;20740;-80
2021/12/20 03:52:27;;;;;;;5.05;4.20;;;;;;;4.53;86.59;100171.72;2290745;70;20324;-79
2021/12/20 03:55:30;;;;;;;8.95;5.11;;;;;;;4.47;86.22;100162.09;2286832;70;20298;-79
2021/12/20 03:58:40;;;;;;;6.57;4.40;;;;;;;4.46;86.21;100168.06;2286828;70;20342;-79
2021/12/20 04:01:57;;;;;;;6.03;4.19;;;;;;;4.47;86.49;100171.50;2281384;70;20330;-79
2021/12/20 04:05:07;;;;;;;6.71;4.40;;;;;;;4.46;86.75;100180.91;2272796;70;20872;-79
2021/12/20 04:08:32;;;;;;;5.79;4.21;;;;;;;4.44;86.91;100185.13;2267541;70;20333;-79
2021/12/20 04:11:44;;;;;;;6.35;4.59;;;;;;;4.43;87.03;100182.53;2258917;70;20324;-79
2021/12/20 04:14:55;;;;;;;5.40;3.94;;;;;;;4.45;87.11;100171.44;2259624;70;20383;-79
2021/12/20 04:18:01;;;;;;;4.85;3.90;;;;;;;4.42;87.04;100180.78;2252776;70;20351;-79
2021/12/20 04:21:23;;;;;;;3.71;3.22;;;;;;;4.41;87.29;100177.31;2262077;71;20349;-79
2021/12/20 04:24:44;;;;;;;4.56;3.72;;;;;;;4.42;87.43;100171.34;2257176;71;20347;-79
2021/12/20 04:28:04;;;;;;;4.06;3.47;;;;;;;4.40;87.62;100167.00;2261331;71;20341;-79
2021/12/20 04:31:28;;;;;;;4.54;3.66;;;;;;;4.38;87.58;100164.38;2256762;71;20767;-79
2021/12/20 04:35:03;;;;;;;5.78;4.38;;;;;;;4.33;87.47;100163.38;2258998;71;20290;-79
2021/12/20 04:38:43;;;;;;;4.36;3.54;;;;;;;4.35;87.56;100166.84;2241765;71;20455;-79
2021/12/20 04:41:52;;;;;;;4.04;3.38;;;;;;;4.31;87.39;100165.00;2234552;71;20327;-79
2021/12/20 04:45:10;;;;;;;3.49;2.79;;;;;;;4.32;87.51;100168.47;2241390;71;20327;-79
2021/12/20 04:48:52;;;;;;;3.29;2.90;;;;;;;4.32;87.59;100163.31;2242113;71;20250;-79
2021/12/20 04:52:04;;;;;;;4.16;3.03;;;;;;;4.29;87.64;100176.03;2244381;71;20326;-79
2021/12/20 04:55:27;;;;;;;4.10;3.59;;;;;;;4.25;87.72;100175.94;2263342;71;20858;-79
2021/12/20 04:58:43;;;;;;;4.31;3.46;;;;;;;4.28;87.57;100170.03;2258830;71;20764;-78
2021/12/20 05:01:55;;;;;;;5.38;3.75;;;;;;;4.23;87.44;100169.88;2251232;71;20310;-79
2021/12/20 05:05:04;;;;;;;5.15;3.66;;;;;;;4.24;87.67;100161.34;2252539;71;20785;-79
2021/12/20 05:08:56;;;;;;;4.41;3.80;;;;;;;4.21;87.66;100165.53;2247503;71;20358;-79
2021/12/20 05:12:26;;;;;;;4.29;3.56;;;;;;;4.21;87.92;100162.94;2242116;71;20424;-79
2021/12/20 05:15:49;;;;;;;4.31;3.51;;;;;;;4.21;88.19;100162.94;2226333;72;20365;-79
2021/12/20 05:19:17;;;;;;;4.81;3.99;;;;;;;4.22;88.34;100162.13;2223601;72;20299;-79
2021/12/20 05:22:57;;;;;;;6.32;4.25;;;;;;;4.21;88.47;100165.53;2223442;72;20463;-79
2021/12/20 05:26:27;;;;;;;5.81;4.47;;;;;;;4.21;88.48;100168.97;2219395;72;20328;-79
2021/12/20 05:29:55;;;;;;;5.07;4.04;;;;;;;4.22;88.54;100162.13;2233010;71;20407;-79
2021/12/20 05:33:21;;;;;;;6.44;4.13;;;;;;;4.14;88.46;100156.75;2236695;71;20358;-79
2021/12/20 05:36:39;;;;;;;4.97;3.96;;;;;;;4.15;88.56;100163.63;2235304;71;20330;-79
2021/12/20 05:40:00;;;;;;;4.80;3.97;;;;;;;4.19;88.45;100165.47;2229580;72;20345;-79
2021/12/20 05:43:11;;;;;;;4.47;3.47;;;;;;;4.20;88.44;100159.50;2224460;72;20340;-79
2021/12/20 05:46:43;;;;;;;5.94;3.24;;;;;;;4.19;88.53;100164.59;2230428;71;20443;-79
2021/12/20 05:50:13;;;;;;;4.60;3.69;;;;;;;4.17;88.58;100179.09;2223236;72;20443;-79
2021/12/20 05:53:29;;;;;;;3.15;2.88;;;;;;;4.17;88.70;100185.09;2226337;72;20444;-79
2021/12/20 05:56:57;;;;;;;4.29;3.30;;;;;;;4.19;88.75;100185.16;2224640;72;20382;-80
2021/12/20 06:00:19;;;;;;;4.07;3.56;;;;;;;4.19;88.94;100173.19;2232349;72;20468;-80
2021/12/20 06:03:40;;;;;;;5.19;4.06;;;;;;;4.20;89.12;100186.91;2230923;72;20423;-79
2021/12/20 06:07:00;;;;;;;9.68;5.86;;;;;;;4.22;89.19;100182.69;2234396;71;20495;-79
2021/12/20 06:10:11;;;;;;;8.43;5.36;;;;;;;4.19;89.19;100187.72;2230239;72;20487;-80
2021/12/20 06:13:34;;;;;;;6.76;5.11;;;;;;;4.20;89.34;100187.78;2223695;72;20317;-80
2021/12/20 06:20:44;;;;;;;7.79;4.84;;;;;;;4.24;89.23;100196.47;2281509;69;20320;-79
2021/12/20 06:28:34;;;;;;;7.99;5.68;;;;;;;4.27;89.19;100185.41;2276897;70;20393;-80
2021/12/20 06:31:42;;;;;;;7.05;4.71;;;;;;;4.31;88.96;100189.81;2264721;70;932568;-80
2021/12/20 06:34:55;;;;;;;5.93;4.11;;;;;;;4.30;88.66;100188.94;2272353;70;20299;-79
2021/12/20 06:38:19;;;;;;;4.94;3.85;;;;;;;4.31;88.67;100187.25;2280020;70;20298;-79
2021/12/20 06:41:29;;;;;;;5.68;3.89;;;;;;;4.29;88.88;100189.75;2283012;70;20836;-80
2021/12/20 06:44:48;;;;;;;7.11;4.60;;;;;;;4.24;88.97;100194.75;2282047;70;20368;-80
2021/12/20 06:48:00;;;;;;;;;;;;;;;4.21;88.85;100188.66;2272401;70;20432;-79
2021/12/20 06:51:09;;;;;;;5.28;3.47;;;;;;;4.18;88.78;100196.25;2281455;70;20421;-79
2021/12/20 06:54:20;;;;;;;6.07;3.70;;;;;;;4.16;88.82;100195.34;2281959;70;20315;-79
2021/12/20 06:57:30;;;;;;;5.01;4.19;;;;;;;4.18;88.92;100203.97;2281601;70;20943;-79
2021/12/20 07:00:48;;;;;;;4.88;3.59;;;;;;;4.19;89.08;100200.59;2280455;70;20409;-80
2021/12/20 07:04:01;;;;;;;5.86;4.04;;;;;;;4.19;89.35;100205.72;2277620;70;20327;-79
2021/12/20 07:07:12;;;;;;;4.94;4.18;;;;;;;4.18;89.43;100212.56;2280357;70;20302;-79
2021/12/20 07:10:18;;;;;;;5.76;4.07;;;;;;;4.16;89.46;100215.91;2279864;70;20350;-79
2021/12/20 07:13:35;;;;;;;7.63;4.69;;;;;;;4.14;89.45;100205.56;2281820;70;20511;-79
2021/12/20 07:16:44;;;;;;;6.12;4.41;;;;;;;4.18;89.54;100209.13;2267541;68;141615;-79
2021/12/20 07:20:14;;;;;;;6.93;4.31;;;;;;;4.17;89.52;100212.50;2281074;69;20820;-79
2021/12/20 07:23:27;;;;;;;5.29;4.44;;;;;;;4.17;89.60;100213.38;2280665;70;20350;-80
2021/12/20 07:26:46;;;;;;;5.63;4.36;;;;;;;4.17;89.76;100210.81;2278135;70;20332;-80
2021/12/20 07:33:33;;;;;;;6.69;3.81;;;;;;;4.15;89.92;100220.16;2286075;69;20334;-79
2021/12/20 07:49:24;;;;;;;4.54;3.89;;;;;;;4.14;90.07;100222.69;2275465;69;20331;-81
2021/12/20 07:53:14;;;;;;;8.52;4.40;;;;;;;4.14;90.12;100225.25;2283030;70;20344;-83
2021/12/20 07:56:18;;;;;;;5.43;4.19;;;;;;;4.13;90.14;100223.47;2291156;70;20261;-80
2021/12/20 07:59:20;;;;;;;7.05;4.43;;;;;;;4.13;90.23;100219.25;2277252;70;20809;-80
2021/12/20 08:02:23;;;;;;;6.65;3.96;;;;;;;4.18;90.08;100219.41;2276533;67;22553;-82
2021/12/20 08:05:27;;;;;;;6.57;4.35;;;;;;;4.22;90.04;100209.25;2275765;70;20374;-80
2021/12/20 08:08:30;;;;;;;5.81;4.54;;;;;;;4.19;89.73;100222.00;2273360;70;20434;-80
2021/12/20 08:11:33;;;;;;;5.60;4.05;;;;;;;4.19;89.70;100224.59;2273812;70;20388;-80
2021/12/20 08:14:36;;;;;;;5.59;3.80;;;;;;;4.23;89.64;100218.72;2274223;70;20321;-81
2021/12/20 08:17:39;;;;;;;4.84;3.78;;;;;;;4.27;89.72;100226.53;2271448;67;31005;-81
2021/12/20 08:20:42;;;;;;;6.54;4.45;;;;;;;4.27;89.76;100222.25;2273146;70;20315;-80
2021/12/20 08:23:45;;;;;;;6.05;4.24;;;;;;;4.28;89.86;100225.72;2284171;70;20423;-80
2021/12/20 08:26:48;;;;;;;5.41;4.13;;;;;;;4.33;89.90;100222.50;2279633;70;20386;-80
2021/12/20 08:29:51;;;;;;;6.82;4.71;;;;;;;4.39;89.68;100226.97;2278425;70;20389;-80
2021/12/20 08:32:54;;;;;;;4.64;3.65;;;;;;;4.47;88.93;100222.94;2277434;67;23171;-79
2021/12/20 08:35:57;;;;;;;3.89;3.53;;;;;;;4.56;88.46;100223.25;2281815;70;20381;-80
2021/12/20 08:38:59;;;;;;;6.19;4.00;;;;;;;4.59;88.29;100220.78;2281364;70;20300;-80
2021/12/20 08:42:03;;;;;;;4.66;4.10;;;;;;;4.67;88.30;100221.91;2282716;70;20292;-80
2021/12/20 08:45:07;;;;;;;5.53;4.40;;;;;;;4.73;88.00;100222.09;2282498;70;20252;-81
2021/12/20 08:48:09;;;;;;;6.36;3.99;;;;;;;4.80;87.28;100223.16;2292521;67;38535;-80
2021/12/20 08:51:13;;;;;;;5.03;4.49;;;;;;;4.86;86.22;100223.38;2287398;70;20348;-80
2021/12/20 08:54:16;;;;;;;10.36;4.89;;;;;;;4.96;85.30;100227.97;2289967;70;20350;-80
2021/12/20 08:57:18;;;;;;;5.97;4.61;;;;;;;5.04;85.03;100228.22;2282849;70;20307;-81
2021/12/20 09:00:27;;;;;;;6.86;4.28;;;;;;;5.13;84.97;100226.78;2284736;70;20291;-80
2021/12/20 09:03:30;;;;;;;4.82;4.21;;;;;;;5.18;85.35;100223.47;2288149;70;20252;-80
2021/12/20 09:06:38;;;;;;;9.02;4.56;;;;;;;5.23;85.85;100237.38;2279961;70;20196;-80
2021/12/20 09:09:44;;;;;;;8.01;4.68;;;;;;;5.27;85.66;100223.78;2283156;70;20348;-81
2021/12/20 09:12:47;;;;;;;5.60;4.09;;;;;;;5.29;85.31;100233.28;2280109;70;20284;-81
2021/12/20 09:15:49;;;;;;;7.60;4.61;;;;;;;5.32;84.64;100238.53;2281547;67;27725;-81
2021/12/20 09:18:52;;;;;;;8.34;4.65;;;;;;;5.40;84.08;100231.03;2280746;70;20307;-80
2021/12/20 09:21:55;;;;;;;10.61;4.94;;;;;;;5.44;84.29;100236.31;2280556;70;20308;-81
2021/12/20 09:24:58;;;;;;;9.90;5.79;;;;;;;5.50;83.93;100240.78;2279345;70;20782;-80
2021/12/20 09:28:05;;;;;;;10.36;5.74;;;;;;;5.57;82.98;100247.00;2278754;70;20321;-80
2021/12/20 09:31:08;;;;;;;12.29;5.29;;;;;;;5.63;82.13;100250.63;2281814;70;20332;-80
2021/12/20 09:34:11;;;;;;;9.96;4.95;;;;;;;5.70;81.21;100238.78;2280273;70;20284;-80
2021/12/20 09:37:14;;;;;;;6.86;4.25;;;;;;;5.74;79.93;100244.09;2280976;70;20386;-80
2021/12/20 09:40:30;;;;;;;8.24;4.66;;;;;;;5.79;78.94;100251.94;2282014;70;20900;-80
2021/12/20 09:43:40;;;;;;;7.61;4.16;;;;;;;5.87;78.47;100245.28;2281659;70;20288;-80
2021/12/20 09:46:43;;;;;;;4.66;3.61;;;;;;;5.95;78.18;100241.25;2280757;67;51186;-80
2021/12/20 09:49:47;;;;;;;8.30;3.19;;;;;;;6.03;77.80;100247.47;2286877;70;20691;-80
2021/12/20 09:52:49;;;;;;;5.68;2.59;;;;;;;6.10;76.68;100250.22;2285488;70;20319;-80
2021/12/20 09:55:53;;;;;;;7.04;2.69;;;;;;;6.18;75.59;100248.75;2287031;70;20340;-80
2021/12/20 09:58:59;;;;;;;5.21;2.91;;;;;;;6.25;74.93;100254.09;2286805;70;20282;-80
2021/12/20 10:02:06;;;;;;;5.03;2.46;;;;;;;6.33;73.88;100254.31;2284600;70;29405;-80
2021/12/20 10:05:12;;;;;;;7.07;2.19;;;;;;;6.38;73.26;100254.41;2286291;70;20752;-80
2021/12/20 10:08:26;;;;;;;5.25;2.14;;;;;;;6.42;72.54;100248.50;2286363;70;20323;-80
2021/12/20 10:11:29;;;;;;;5.22;2.50;;;;;;;6.47;71.87;100246.94;2282245;70;20380;-80
2021/12/20 10:15:01;;;;;;;5.82;1.95;;;;;;;6.51;71.25;100246.19;2287834;70;20310;-80
2021/12/20 10:18:11;;;;;;;5.30;1.81;;;;;;;6.56;70.38;100240.28;2285978;67;25854;-80
2021/12/20 10:21:14;;;;;;;6.29;2.25;;;;;;;6.59;70.35;100239.50;2285635;70;20830;-80
2021/12/20 10:24:30;;;;;;;5.68;2.21;;;;;;;6.61;69.92;100241.28;2286095;70;20370;-80
2021/12/20 10:27:36;;;;;;;7.29;2.28;;;;;;;6.66;69.68;100244.84;2285966;70;20365;-80
2021/12/20 10:30:45;;;;;;;9.19;2.09;;;;;;;6.73;69.53;100245.00;2280842;70;20757;-80
2021/12/20 10:33:52;;;;;;;;;;;;;;;6.77;69.51;100241.66;2286784;70;20898;-80
2021/12/20 10:36:56;;;;;;;4.84;1.81;;;;;;;6.80;69.35;100242.59;2286099;70;20067;-80
2021/12/20 10:40:03;;;;;;;6.38;1.98;;;;;;;6.80;68.83;100246.88;2285091;70;20353;-80
2021/12/20 10:43:06;;;;;;;5.32;1.59;;;;;;;6.83;68.68;100245.28;2286423;70;20804;-80
2021/12/20 10:46:21;;;;;;;7.05;1.66;;;;;;;6.84;68.63;100249.59;2284091;67;27957;-80
2021/12/20 10:49:29;;;;;;;5.26;1.76;;;;;;;6.82;68.51;100246.13;2284451;70;20826;-80
2021/12/20 10:52:32;;;;;;;5.05;1.64;;;;;;;6.83;68.79;100244.41;2287047;70;20306;-80
2021/12/20 10:55:36;;;;;;;4.56;1.30;;;;;;;6.83;68.57;100247.84;2285778;70;20318;-80
2021/12/20 10:58:39;;;;;;;5.84;1.55;;;;;;;6.83;68.38;100247.00;2288288;70;20710;-81
2021/12/20 11:05:24;;;;;;;5.85;1.40;;;;;;;6.81;68.00;100231.44;2289360;70;20314;-80
2021/12/20 11:11:52;;;;;;;9.55;1.74;;;;;;;6.86;67.69;100223.81;2299329;70;20235;-80
2021/12/20 11:14:59;;;;;;;7.57;2.33;;;;;;;6.89;68.03;100214.44;2305061;70;20255;-81
2021/12/20 11:18:14;;;;;;;5.38;1.16;;;;;;;6.94;68.51;100219.69;2306165;67;43720;-81
2021/12/20 11:21:19;;;;;;;5.14;1.50;;;;;;;6.98;68.00;100218.94;2282406;70;20350;-79
2021/12/20 11:24:35;;;;;;;5.31;1.35;;;;;;;7.03;67.81;100206.16;2282088;70;20337;-79
2021/12/20 11:27:51;;;;;;;8.56;1.58;;;;;;;7.08;66.97;100218.31;2280077;70;20356;-79
2021/12/20 11:30:53;;;;;;;4.96;1.71;;;;;;;7.12;67.39;100208.91;2276391;68;24539;-79
2021/12/20 11:33:56;;;;;;;7.13;1.79;;;;;;;7.15;67.38;100212.44;2281600;70;20327;-79
2021/12/20 11:37:00;;;;;;;6.38;1.67;;;;;;;7.16;66.83;100211.59;2281859;70;20788;-79
2021/12/20 11:40:06;;;;;;;5.88;1.45;;;;;;;7.15;67.12;100204.69;2281774;70;20291;-79
2021/12/20 11:43:09;;;;;;;6.10;1.66;;;;;;;7.14;67.59;100202.94;2281611;70;20382;-78
2021/12/20 11:46:14;;;;;;;4.30;1.23;;;;;;;7.14;67.40;100205.53;2279955;67;25616;-79
2021/12/20 11:49:21;;;;;;;3.88;1.45;;;;;;;7.13;67.36;100208.06;2280684;70;20815;-79
2021/12/20 11:52:30;;;;;;;6.63;1.40;;;;;;;7.12;67.76;100207.22;2282958;70;20373;-79
2021/12/20 11:55:33;;;;;;;6.64;1.41;;;;;;;7.16;68.43;100205.56;2282509;70;20320;-80
2021/12/20 11:58:38;;;;;;;4.19;1.40;;;;;;;7.19;67.86;100198.78;2281534;70;20242;-79
2021/12/20 12:01:40;;;;;;;4.70;1.10;;;;;;;7.20;67.52;100190.19;2285621;67;22600;-80
2021/12/20 12:05:03;;;;;;;4.45;1.40;;;;;;;7.29;67.59;100202.41;2287866;70;20311;-81
2021/12/20 12:08:52;;;;;;;4.44;1.46;;;;;;;7.32;66.21;100199.03;2287248;70;20877;-80
2021/12/20 12:11:54;;;;;;;4.07;1.26;;;;;;;7.36;66.07;100188.81;2283255;70;20303;-80
2021/12/20 12:15:08;;;;;;;4.22;1.38;;;;;;;7.42;66.31;100188.94;2283988;70;20683;-80
2021/12/20 12:18:11;;;;;;;5.09;1.41;;;;;;;7.48;66.02;100188.19;2277534;67;21593;-80
2021/12/20 12:21:32;;;;;;;4.04;1.02;;;;;;;7.47;65.09;100189.91;2285388;70;20404;-80
2021/12/20 12:24:50;;;;;;;7.25;1.30;;;;;;;7.43;64.24;100190.69;2283146;70;20344;-80
2021/12/20 12:27:57;;;;;;;5.54;1.40;;;;;;;7.38;64.50;100183.69;2284390;70;20283;-80
2021/12/20 12:31:04;;;;;;;6.64;1.59;;;;;;;7.31;64.56;100174.91;2283619;68;21331;-80
2021/12/20 12:34:11;;;;;;;7.81;1.69;;;;;;;7.26;65.01;100179.97;2284497;70;20332;-80
2021/12/20 12:37:17;;;;;;;5.84;1.61;;;;;;;7.21;65.47;100175.56;2281974;70;21129;-80
2021/12/20 12:40:25;;;;;;;6.53;1.74;;;;;;;7.18;65.89;100181.53;2283874;70;20332;-80
2021/12/20 12:43:47;;;;;;;5.51;1.60;;;;;;;7.13;66.53;100174.50;2279100;70;20772;-80
2021/12/20 12:46:55;;;;;;;4.86;1.67;;;;;;;7.11;66.78;100179.66;2283192;67;24491;-80
2021/12/20 12:49:59;;;;;;;7.42;1.90;;;;;;;7.10;66.14;100172.72;2283562;70;20431;-79
2021/12/20 12:53:02;;;;;;;6.01;1.49;;;;;;;7.08;65.83;100174.41;2283503;70;20700;-80
2021/12/20 12:56:23;;;;;;;5.28;1.20;;;;;;;7.04;64.78;100172.63;2286422;70;20298;-80
2021/12/20 12:59:26;;;;;;;3.76;1.29;;;;;;;7.02;64.97;100165.69;2285371;70;20310;-80
2021/12/20 13:02:28;;;;;;;5.39;1.71;;;;;;;7.01;65.42;100161.34;2284298;67;22119;-80
2021/12/20 13:05:32;;;;;;;7.24;1.45;;;;;;;6.97;64.41;100170.72;2284428;70;20349;-80
2021/12/20 13:08:49;;;;;;;7.34;2.17;;;;;;;6.94;63.38;100166.34;2286235;70;20307;-80
2021/12/20 13:12:07;;;;;;;6.49;1.49;;;;;;;6.93;62.70;100162.03;2286224;70;20351;-80
2021/12/20 13:18:22;;;;;;;5.04;1.41;;;;;;;6.94;63.13;100163.78;2283520;70;20302;-81
2021/12/20 13:21:37;;;;;;;3.99;1.09;;;;;;;6.89;63.14;100160.22;2284728;70;20315;-80
2021/12/20 13:24:39;;;;;;;4.91;1.01;;;;;;;6.85;62.70;100162.72;2284279;70;20314;-80
2021/12/20 13:27:42;;;;;;;4.18;1.27;;;;;;;6.83;60.46;100170.41;2285173;70;20419;-80
2021/12/20 13:30:48;;;;;;;4.66;1.79;;;;;;;6.75;57.93;100159.03;2284414;70;20298;-80
2021/12/20 13:33:52;;;;;;;7.28;1.16;;;;;;;6.73;57.41;100157.25;2286391;70;20993;-80
2021/12/20 13:36:57;;;;;;;6.94;1.25;;;;;;;6.72;57.22;100168.41;2281679;70;20308;-80
2021/12/20 13:39:59;;;;;;;6.81;1.98;;;;;;;6.69;57.56;100165.78;2286437;70;20346;-80
2021/12/20 13:43:09;;;;;;;4.94;1.11;;;;;;;6.64;56.33;100168.22;2285702;70;21275;-80
2021/12/20 13:46:16;;;;;;;4.85;1.00;;;;;;;6.58;56.30;100179.28;2283244;67;24967;-78
2021/12/20 13:49:22;;;;;;;4.90;1.13;;;;;;;6.56;57.25;100177.50;2285573;70;20307;-81
2021/12/20 13:52:25;;;;;;;5.19;1.10;;;;;;;6.53;57.98;100174.84;2289971;70;20307;-80
2021/12/20 13:55:28;;;;;;;3.59;1.04;;;;;;;6.46;58.18;100163.50;2286638;70;20307;-80
2021/12/20 13:58:31;;;;;;;6.18;1.01;;;;;;;6.40;58.89;100172.78;2288242;70;20302;-80
2021/12/20 14:01:34;;;;;;;3.13;1.27;;;;;;;6.30;59.24;100170.00;2287006;67;44308;-80
2021/12/20 14:04:41;;;;;;;4.25;1.10;;;;;;;6.17;60.38;100165.34;2289106;70;20330;-80
2021/12/20 14:07:47;;;;;;;3.58;1.30;;;;;;;6.07;59.41;100163.38;2283174;70;20287;-81
2021/12/20 14:10:51;;;;;;;4.68;1.19;;;;;;;5.98;59.43;100173.44;2287981;70;20335;-80
2021/12/20 14:14:07;;;;;;;5.32;1.10;;;;;;;5.91;59.06;100169.81;2287044;70;20364;-80
2021/12/20 14:17:26;;;;;;;3.90;0.73;;;;;;;5.87;59.66;100167.09;2285744;67;39213;-80
2021/12/20 14:20:38;;;;;;;5.43;0.77;;;;;;;5.84;59.97;100159.28;2281054;70;20514;-80
2021/12/20 14:23:48;;;;;;;5.35;0.80;;;;;;;5.81;60.52;100157.50;2288130;70;20348;-80
2021/12/20 14:27:03;;;;;;;2.75;0.70;;;;;;;5.83;60.91;100150.69;2286126;70;20306;-80
2021/12/20 14:30:21;;;;;;;6.41;1.00;;;;;;;5.83;60.92;100154.97;2286775;70;20333;-80
2021/12/20 14:33:30;;;;;;;4.22;1.25;;;;;;;5.90;60.72;100154.31;2292568;70;20403;-80
2021/12/20 14:36:37;;;;;;;4.76;0.70;;;;;;;5.95;60.54;100151.03;2296024;70;21220;-81
2021/12/20 14:39:45;;;;;;;3.34;0.57;;;;;;;5.99;60.72;100157.16;2295292;70;20333;-80
2021/12/20 14:43:16;;;;;;;4.01;1.10;;;;;;;5.96;60.25;100154.50;2295933;70;20296;-81
2021/12/20 14:50:04;;;;;;;4.39;0.95;;;;;;;5.95;59.13;100163.94;2266996;71;20169;-80
2021/12/20 14:53:19;;;;;;;6.51;1.17;;;;;;;5.93;60.45;100162.16;2284094;70;20294;-81
2021/12/20 14:56:22;;;;;;;6.81;0.89;;;;;;;5.91;60.75;100158.63;2276691;71;20258;-81
2021/12/20 14:59:31;;;;;;;7.55;1.23;;;;;;;5.88;61.91;100166.25;2254231;71;20310;-77
2021/12/20 15:02:39;;;;;;;7.88;1.99;;;;;;;5.84;62.54;100165.31;2258552;71;21131;-77
2021/12/20 15:05:45;;;;;;;6.56;1.14;;;;;;;5.79;62.77;100176.34;2257694;71;20154;-78
2021/12/20 15:08:59;;;;;;;6.45;1.10;;;;;;;5.75;62.96;100172.81;2258977;71;20275;-78
2021/12/20 15:12:02;;;;;;;6.68;1.41;;;;;;;5.67;62.78;100177.72;2257204;71;20867;-75
2021/12/20 15:15:06;;;;;;;6.65;1.09;;;;;;;5.59;62.88;100175.78;2255648;71;20319;-74
2021/12/20 15:18:08;;;;;;;9.35;1.45;;;;;;;5.50;63.77;100181.53;2255617;71;21338;-74
2021/12/20 15:21:11;;;;;;;7.70;1.50;;;;;;;5.42;63.99;100183.91;2253878;71;20395;-75
2021/12/20 15:24:13;;;;;;;10.24;1.35;;;;;;;5.30;63.89;100180.97;2254553;71;21441;-74
2021/12/20 15:27:16;;;;;;;6.21;1.23;;;;;;;5.20;64.39;100188.34;2254636;71;20306;-74
2021/12/20 15:30:21;;;;;;;7.88;1.49;;;;;;;5.07;65.79;100185.44;2266673;70;20339;-75
2021/12/20 15:33:24;;;;;;;9.52;1.59;;;;;;;4.95;66.18;100179.03;2281768;70;21015;-74
2021/12/20 15:36:27;;;;;;;8.02;1.40;;;;;;;4.76;66.21;100175.88;2281539;70;20327;-75
2021/12/20 15:39:29;;;;;;;9.20;1.31;;;;;;;4.64;67.10;100174.63;2281443;70;20425;-75
2021/12/20 15:42:33;;;;;;;7.53;1.50;;;;;;;4.50;67.57;100177.66;2282700;70;20313;-75
2021/12/20 15:45:37;;;;;;;5.39;1.24;;;;;;;4.44;67.57;100181.69;2281836;70;20769;-75